POGODA: Poland

Lotnisko: Rzeszow-Jasionka

METAR KOD: EPRZ


METAR: EPRZ 241630Z 06005KT 9999 FEW020CB 19/18 Q1012


BLOK
Pogoda METAR
241630Z
Dzien: 24, Godzina: 16:30 UTC.
06005KT
Wiatr z kierunku 060, o predkosci 9 km/h
9999
Widzialnosc pozioma ponad 10 km.
FEW020CB
1/8 - 2/8 pokrycia nieba, chmurami o podstawie: 600 metrow, cumulonimbus
19/18
Temperatura: powietrze 19°C, punkt rosy 18°C . Wilgotnosc wzgledna 95 %
Q1012
Cisnienie: 1012 hPa

Pogoda na innym lotnisku

Pogoda Gdansk-Rebiechowo WEATHER Poland  
Pogoda Katowice WEATHER Poland  
Pogoda Krakow WEATHER Poland  
Pogoda Poznan WEATHER Poland  
Pogoda Rzeszow-Jasionka WEATHER Poland  
Pogoda Szczecin WEATHER Poland  
Pogoda Warszawa-Okecie WEATHER Poland  
Pogoda Wroclaw Ii WEATHER Poland  

Pogoda w inny kraju

Strona startowa

(C) by GREGOR 2007
Ogłoszenia Towarzyskie